Time;durP1;ratioP1;P1;durP2;ratioP2;P2;SDS_P1;SDS_P2;PMS_P1;PMS_P2;Temp;Humidity;BMP_temperature;BMP_pressure;BME280_temperature;BME280_humidity;BME280_pressure;Samples;Min_cycle;Max_cycle;Signal;HPM_P1;HPM_P2
2021/09/25 00:01:57;;;;;;;8.00;5.22;;;16.30;99.90;;;;;;5055721;28;20111;-85
2021/09/25 00:04:23;;;;;;;10.50;5.50;;;16.30;99.90;;;;;;5073658;28;20492;-85
2021/09/25 00:06:49;;;;;;;8.15;4.65;;;16.20;99.90;;;;;;5073986;28;20056;-85
2021/09/25 00:09:15;;;;;;;9.68;5.18;;;16.20;99.90;;;;;;5055227;28;20060;-85
2021/09/25 00:11:40;;;;;;;9.48;5.07;;;16.20;99.90;;;;;;5055996;28;20035;-85
2021/09/25 00:14:06;;;;;;;7.93;5.18;;;16.10;99.90;;;;;;5055679;28;20024;-85
2021/09/25 00:16:32;;;;;;;9.02;5.13;;;16.20;99.90;;;;;;5055485;28;20025;-85
2021/09/25 00:18:58;;;;;;;8.48;4.90;;;16.10;99.90;;;;;;5073232;28;20077;-85
2021/09/25 00:21:26;;;;;;;10.30;5.10;;;16.10;99.90;;;;;;5073542;28;20032;-85
2021/09/25 00:23:52;;;;;;;7.97;4.47;;;16.10;99.90;;;;;;5055325;28;20024;-85
2021/09/25 00:26:18;;;;;;;8.85;5.40;;;16.10;99.90;;;;;;5055639;28;20024;-85
2021/09/25 00:28:43;;;;;;;8.85;4.80;;;16.10;99.90;;;;;;5055614;28;20021;-86
2021/09/25 00:31:09;;;;;;;9.10;5.10;;;16.10;99.90;;;;;;5054956;28;20025;-85
2021/09/25 00:33:35;;;;;;;11.30;5.60;;;16.10;99.90;;;;;;5055236;28;20028;-85
2021/09/25 00:36:01;;;;;;;7.38;4.28;;;16.00;99.90;;;;;;5073364;28;20512;-85
2021/09/25 00:38:26;;;;;;;6.30;4.00;;;16.00;99.90;;;;;;5072858;28;20021;-85
2021/09/25 00:40:52;;;;;;;6.45;4.20;;;16.00;99.90;;;;;;5054313;28;20082;-84
2021/09/25 00:43:18;;;;;;;7.10;4.15;;;16.00;99.90;;;;;;5072418;28;20469;-85
2021/09/25 00:45:44;;;;;;;10.20;4.35;;;15.90;99.90;;;;;;5054622;28;20077;-85
2021/09/25 00:48:09;;;;;;;5.40;3.72;;;15.90;99.90;;;;;;5054542;28;20027;-85
2021/09/25 00:50:35;;;;;;;5.88;3.67;;;15.90;99.90;;;;;;5054081;28;20036;-85
2021/09/25 00:53:01;;;;;;;6.15;3.90;;;15.90;99.90;;;;;;5054534;28;20116;-84
2021/09/25 00:55:26;;;;;;;6.40;4.32;;;15.80;99.90;;;;;;5054565;28;20488;-85
2021/09/25 00:58:00;;;;;;;6.88;4.13;;;15.80;99.90;;;;;;5072422;28;20029;-85
2021/09/25 01:00:27;;;;;;;8.65;4.10;;;15.80;99.90;;;;;;5053927;28;20112;-85
2021/09/25 01:02:53;;;;;;;7.53;4.45;;;15.80;99.90;;;;;;5072824;28;20032;-85
2021/09/25 01:05:21;;;;;;;7.07;4.43;;;15.80;99.90;;;;;;5072277;28;20074;-85
2021/09/25 01:07:47;;;;;;;6.43;3.85;;;15.80;99.90;;;;;;5054440;28;20032;-85
2021/09/25 01:10:14;;;;;;;7.43;4.30;;;15.80;99.90;;;;;;5054161;28;20021;-84
2021/09/25 01:12:41;;;;;;;5.65;3.80;;;15.70;99.90;;;;;;5072013;28;20493;-85
2021/09/25 01:15:07;;;;;;;5.25;3.45;;;15.70;99.90;;;;;;5053851;28;20032;-85
2021/09/25 01:17:33;;;;;;;7.13;4.18;;;15.70;99.90;;;;;;5054182;28;20032;-85
2021/09/25 01:20:00;;;;;;;6.55;4.20;;;15.70;99.90;;;;;;5053765;28;20389;-85
2021/09/25 01:22:26;;;;;;;7.25;4.45;;;15.70;99.90;;;;;;5054159;28;20016;-85
2021/09/25 01:24:52;;;;;;;7.53;4.30;;;15.70;99.90;;;;;;5054170;28;20059;-85
2021/09/25 01:27:18;;;;;;;6.53;3.80;;;15.60;99.90;;;;;;5071894;28;20052;-85
2021/09/25 01:29:43;;;;;;;6.10;3.70;;;15.60;99.90;;;;;;5071830;28;20380;-85
2021/09/25 01:32:09;;;;;;;6.47;3.60;;;15.60;99.90;;;;;;5072149;28;20099;-84
2021/09/25 01:34:36;;;;;;;8.00;3.80;;;15.60;99.90;;;;;;5071738;28;20033;-85
2021/09/25 01:37:02;;;;;;;5.93;3.88;;;15.60;99.90;;;;;;5054188;28;20029;-85
2021/09/25 01:39:28;;;;;;;7.20;4.05;;;15.60;99.90;;;;;;5053568;28;20017;-85
2021/09/25 01:41:54;;;;;;;7.50;3.78;;;15.60;99.90;;;;;;5054089;28;20024;-84
2021/09/25 01:44:22;;;;;;;8.32;4.25;;;15.60;99.90;;;;;;5054264;28;20039;-84
2021/09/25 01:46:48;;;;;;;8.02;4.43;;;15.60;99.90;;;;;;5054155;28;20036;-85
2021/09/25 01:49:14;;;;;;;6.50;4.03;;;15.60;99.90;;;;;;5054013;28;20024;-86
2021/09/25 01:51:40;;;;;;;7.03;4.10;;;15.50;99.90;;;;;;5075829;28;20081;-86
2021/09/25 01:54:05;;;;;;;6.90;4.15;;;15.50;99.90;;;;;;5056222;28;20067;-86
2021/09/25 01:56:31;;;;;;;7.22;4.60;;;15.60;99.90;;;;;;5056548;28;20067;-84
2021/09/25 01:58:57;;;;;;;7.55;4.50;;;15.60;99.90;;;;;;5055152;28;20470;-85
2021/09/25 02:01:22;;;;;;;8.65;4.10;;;15.60;99.90;;;;;;5055381;28;20024;-85
2021/09/25 02:03:48;;;;;;;6.78;4.43;;;15.60;99.90;;;;;;5055861;28;20108;-86
2021/09/25 02:06:14;;;;;;;7.05;4.10;;;15.60;99.90;;;;;;5055358;28;20031;-85
2021/09/25 02:08:41;;;;;;;6.47;4.07;;;15.60;99.90;;;;;;5055614;28;20028;-86
2021/09/25 02:11:07;;;;;;;6.78;4.47;;;15.60;99.90;;;;;;5055278;28;20024;-85
2021/09/25 02:13:33;;;;;;;7.43;4.20;;;15.60;99.90;;;;;;5073850;28;20063;-85
2021/09/25 02:15:59;;;;;;;6.53;4.53;;;15.70;99.90;;;;;;5074818;28;20048;-86
2021/09/25 02:18:26;;;;;;;7.28;4.80;;;15.70;99.90;;;;;;5056071;28;20047;-85
2021/09/25 02:20:53;;;;;;;9.02;4.82;;;15.70;99.90;;;;;;5056130;28;20393;-84
2021/09/25 02:23:18;;;;;;;6.97;4.57;;;15.70;99.90;;;;;;5056945;28;20146;-85
2021/09/25 02:25:44;;;;;;;8.05;4.53;;;15.70;99.90;;;;;;5059066;28;20501;-86
2021/09/25 02:28:09;;;;;;;8.63;5.18;;;15.70;99.90;;;;;;5060749;28;20082;-85
2021/09/25 02:30:35;;;;;;;7.63;4.63;;;15.70;99.90;;;;;;5060283;28;20028;-84
2021/09/25 02:33:01;;;;;;;9.52;4.90;;;15.70;99.90;;;;;;5078833;28;20020;-86
2021/09/25 02:35:27;;;;;;;9.25;5.03;;;15.70;99.90;;;;;;5057866;28;20035;-86
2021/09/25 02:37:52;;;;;;;9.75;5.10;;;15.80;99.90;;;;;;5056553;28;20037;-86
2021/09/25 02:40:19;;;;;;;8.20;4.72;;;15.80;99.90;;;;;;5056396;28;20028;-86
2021/09/25 02:42:45;;;;;;;9.38;5.25;;;15.80;99.90;;;;;;5074810;28;20025;-86
2021/09/25 02:45:13;;;;;;;9.50;5.40;;;15.80;99.90;;;;;;5074778;28;20094;-86
2021/09/25 02:47:39;;;;;;;8.68;5.32;;;15.80;99.90;;;;;;5056738;28;20028;-86
2021/09/25 02:50:07;;;;;;;10.60;5.30;;;15.80;99.90;;;;;;5056211;28;20556;-86
2021/09/25 02:52:33;;;;;;;10.48;5.30;;;15.80;99.90;;;;;;5074541;28;20078;-85
2021/09/25 02:54:59;;;;;;;9.30;5.43;;;15.70;99.90;;;;;;5056577;28;20028;-86
2021/09/25 02:57:25;;;;;;;8.02;5.03;;;15.70;99.90;;;;;;5056670;28;20074;-86
2021/09/25 02:59:51;;;;;;;11.02;6.03;;;15.80;99.90;;;;;;5055881;28;20025;-86
2021/09/25 03:02:16;;;;;;;12.88;6.13;;;15.70;99.90;;;;;;5056447;28;20024;-86
2021/09/25 03:04:42;;;;;;;9.85;6.20;;;15.80;99.90;;;;;;5056592;28;20032;-86
2021/09/25 03:07:08;;;;;;;11.10;5.82;;;15.80;99.90;;;;;;5074322;28;20071;-86
2021/09/25 03:09:34;;;;;;;10.82;5.90;;;15.80;99.90;;;;;;5055825;28;20059;-86
2021/09/25 03:12:00;;;;;;;12.95;7.20;;;15.80;99.90;;;;;;5074189;28;20465;-86
2021/09/25 03:14:25;;;;;;;11.52;6.80;;;15.80;99.90;;;;;;5056295;28;20180;-86
2021/09/25 03:16:52;;;;;;;10.73;6.38;;;15.80;99.90;;;;;;5056333;28;20033;-86
2021/09/25 03:19:19;;;;;;;11.23;6.50;;;15.80;99.90;;;;;;5055738;28;20021;-86
2021/09/25 03:21:44;;;;;;;11.20;6.63;;;15.80;99.90;;;;;;5055993;28;20032;-86
2021/09/25 03:24:10;;;;;;;10.60;6.40;;;15.80;99.90;;;;;;5055862;28;20020;-86
2021/09/25 03:26:36;;;;;;;12.45;7.43;;;15.80;99.90;;;;;;5056128;28;20052;-86
2021/09/25 03:29:03;;;;;;;12.55;7.80;;;15.80;99.90;;;;;;5055451;28;20123;-85
2021/09/25 03:31:28;;;;;;;13.98;7.90;;;15.80;99.90;;;;;;5055688;28;20029;-85
2021/09/25 03:33:54;;;;;;;12.93;7.43;;;15.80;99.90;;;;;;5055849;28;20425;-86
2021/09/25 03:36:19;;;;;;;13.20;7.68;;;15.80;99.90;;;;;;5055142;28;20393;-86
2021/09/25 03:38:45;;;;;;;10.73;6.68;;;15.80;99.90;;;;;;5055841;28;20029;-85
2021/09/25 03:41:11;;;;;;;13.63;7.65;;;15.80;99.90;;;;;;5055315;28;20063;-85
2021/09/25 03:43:36;;;;;;;12.05;7.53;;;15.80;99.90;;;;;;5055725;28;20020;-86
2021/09/25 03:46:02;;;;;;;13.15;6.90;;;15.80;99.90;;;;;;5055669;28;20039;-86
2021/09/25 03:48:27;;;;;;;13.77;7.45;;;15.80;99.90;;;;;;5055680;28;20029;-86
2021/09/25 03:50:53;;;;;;;13.98;7.22;;;15.80;99.90;;;;;;5055056;28;20032;-86
2021/09/25 03:53:20;;;;;;;11.00;6.68;;;15.80;99.90;;;;;;5073516;28;20094;-85
2021/09/25 03:55:46;;;;;;;11.10;6.45;;;15.80;99.90;;;;;;5055595;28;20489;-86
2021/09/25 03:58:12;;;;;;;10.52;6.22;;;15.80;99.90;;;;;;5055416;28;20020;-86
2021/09/25 04:00:42;;;;;;;12.50;6.88;;;15.80;99.90;;;;;;5054888;28;20024;-86
2021/09/25 04:03:10;;;;;;;9.45;6.15;;;15.80;99.90;;;;;;5055280;28;20032;-86
2021/09/25 04:05:35;;;;;;;12.05;6.82;;;15.80;99.90;;;;;;5055194;28;20036;-86
2021/09/25 04:08:01;;;;;;;13.50;7.03;;;15.80;99.90;;;;;;5055268;28;20036;-86
2021/09/25 04:10:27;;;;;;;14.82;7.03;;;15.80;99.90;;;;;;5054593;28;20028;-86
2021/09/25 04:12:52;;;;;;;11.38;6.43;;;15.80;99.90;;;;;;5055308;28;20039;-86
2021/09/25 04:15:18;;;;;;;13.05;6.78;;;15.80;99.90;;;;;;5073341;28;20029;-86
2021/09/25 04:17:43;;;;;;;13.20;7.47;;;15.80;99.90;;;;;;5054902;28;20024;-86
2021/09/25 04:20:09;;;;;;;12.23;6.40;;;15.80;99.90;;;;;;5072325;28;20523;-86
2021/09/25 04:22:38;;;;;;;12.40;6.75;;;15.80;99.90;;;;;;5054952;28;20024;-85
2021/09/25 04:25:04;;;;;;;12.57;6.95;;;15.80;99.90;;;;;;5054993;28;20431;-85
2021/09/25 04:27:30;;;;;;;11.30;6.65;;;15.80;99.90;;;;;;5054844;28;20489;-86
2021/09/25 04:30:00;;;;;;;12.32;6.68;;;15.80;99.90;;;;;;5054330;28;20031;-86
2021/09/25 04:32:27;;;;;;;13.63;7.18;;;15.80;99.90;;;;;;5054933;28;20385;-86
2021/09/25 04:34:53;;;;;;;12.95;7.20;;;15.80;99.90;;;;;;5072477;28;20059;-86
2021/09/25 04:37:19;;;;;;;12.48;6.80;;;15.80;99.90;;;;;;5072786;28;20077;-86
2021/09/25 04:39:45;;;;;;;15.60;7.50;;;15.80;99.90;;;;;;5054254;28;20027;-86
2021/09/25 04:42:11;;;;;;;12.88;7.28;;;15.70;99.90;;;;;;5054577;28;20115;-86
2021/09/25 04:44:36;;;;;;;14.77;7.05;;;15.70;99.90;;;;;;5072363;28;20486;-85
2021/09/25 04:47:02;;;;;;;17.98;7.85;;;15.80;99.90;;;;;;5054511;28;20028;-86
2021/09/25 04:49:28;;;;;;;12.20;7.32;;;15.80;99.90;;;;;;5053184;28;20036;-86
2021/09/25 04:51:53;;;;;;;15.00;7.95;;;15.80;99.90;;;;;;5054337;28;20059;-85
2021/09/25 04:54:19;;;;;;;12.40;6.75;;;15.80;99.90;;;;;;5054644;28;20029;-86
2021/09/25 04:56:45;;;;;;;11.45;6.88;;;15.80;99.90;;;;;;5054254;28;20451;-86
2021/09/25 04:59:10;;;;;;;12.90;7.38;;;15.80;99.90;;;;;;5053769;28;20070;-85
2021/09/25 05:01:36;;;;;;;12.23;6.80;;;15.80;99.90;;;;;;5054241;28;20517;-86
2021/09/25 05:04:03;;;;;;;13.25;6.90;;;15.80;99.90;;;;;;5054336;28;20385;-86
2021/09/25 05:06:31;;;;;;;13.50;7.45;;;15.80;99.90;;;;;;5054329;28;20028;-86
2021/09/25 05:08:57;;;;;;;12.00;6.90;;;15.80;99.90;;;;;;5053777;28;20070;-85
2021/09/25 05:11:24;;;;;;;13.82;7.72;;;15.80;99.90;;;;;;5054383;28;20370;-85
2021/09/25 05:13:51;;;;;;;15.70;7.30;;;15.80;99.90;;;;;;5054193;28;20473;-85
2021/09/25 05:16:17;;;;;;;12.35;7.63;;;15.80;99.90;;;;;;5054096;28;20032;-86
2021/09/25 05:18:42;;;;;;;10.48;6.20;;;15.80;99.90;;;;;;5054020;28;20024;-86
2021/09/25 05:21:08;;;;;;;11.77;7.03;;;15.80;99.90;;;;;;5053358;28;20020;-86
2021/09/25 05:23:35;;;;;;;13.68;6.93;;;15.80;99.90;;;;;;5054024;28;20039;-86
2021/09/25 05:26:01;;;;;;;12.82;7.07;;;15.80;99.90;;;;;;5054344;28;20025;-85
2021/09/25 05:28:27;;;;;;;10.57;6.65;;;15.80;99.90;;;;;;5054134;28;20035;-85
2021/09/25 05:30:53;;;;;;;11.98;6.95;;;15.80;99.90;;;;;;5071181;28;20016;-86
2021/09/25 05:33:19;;;;;;;13.07;7.00;;;15.80;99.90;;;;;;5072003;28;20409;-86
2021/09/25 05:35:44;;;;;;;12.30;7.10;;;15.80;99.90;;;;;;5053673;28;20119;-86
2021/09/25 05:38:10;;;;;;;12.38;6.65;;;15.80;99.90;;;;;;5071843;28;20095;-86
2021/09/25 05:40:36;;;;;;;12.85;6.60;;;15.80;99.90;;;;;;5053464;28;20021;-85
2021/09/25 05:43:01;;;;;;;11.35;6.32;;;15.80;99.90;;;;;;5053741;28;20029;-86
2021/09/25 05:45:27;;;;;;;12.15;6.65;;;15.80;99.90;;;;;;5053774;28;20055;-86
2021/09/25 05:47:54;;;;;;;11.35;6.18;;;15.80;99.90;;;;;;5053937;28;20028;-86
2021/09/25 05:50:19;;;;;;;15.48;7.97;;;15.80;99.90;;;;;;5071175;28;20020;-86
2021/09/25 05:52:45;;;;;;;10.25;5.95;;;15.80;99.90;;;;;;5053707;28;20086;-86
2021/09/25 05:55:11;;;;;;;10.75;6.35;;;15.80;99.90;;;;;;5053748;28;20051;-86
2021/09/25 05:57:37;;;;;;;11.90;6.25;;;15.80;99.90;;;;;;5053690;28;20024;-86
2021/09/25 06:00:07;;;;;;;10.82;6.40;;;15.80;99.90;;;;;;5054383;28;20560;-86
2021/09/25 06:02:32;;;;;;;10.15;6.07;;;15.80;99.90;;;;;;5057632;28;20032;-86
2021/09/25 06:04:58;;;;;;;9.63;6.32;;;15.90;99.90;;;;;;5057597;28;20021;-86
2021/09/25 06:07:24;;;;;;;10.95;6.20;;;15.90;99.90;;;;;;5057610;28;20111;-86
2021/09/25 06:09:49;;;;;;;9.95;5.32;;;15.80;99.90;;;;;;5074977;28;20021;-86
2021/09/25 06:12:15;;;;;;;10.57;6.85;;;15.90;99.90;;;;;;5057373;28;20024;-86
2021/09/25 06:14:41;;;;;;;14.45;6.78;;;15.90;99.90;;;;;;5075303;28;20035;-86
2021/09/25 06:17:07;;;;;;;11.40;6.20;;;15.90;99.90;;;;;;5075290;28;20025;-86
2021/09/25 06:19:33;;;;;;;9.25;6.10;;;15.90;99.90;;;;;;5074723;28;20040;-86
2021/09/25 06:21:58;;;;;;;11.80;6.43;;;15.80;99.90;;;;;;5057149;28;20055;-85
2021/09/25 06:24:24;;;;;;;11.32;6.57;;;15.90;99.90;;;;;;5075160;28;20413;-86
2021/09/25 06:26:50;;;;;;;12.38;7.78;;;15.90;99.90;;;;;;5057285;28;20021;-86
2021/09/25 06:29:15;;;;;;;12.98;7.38;;;15.90;99.90;;;;;;5056732;28;20119;-86
2021/09/25 06:31:41;;;;;;;13.20;7.03;;;15.90;99.90;;;;;;5075090;28;20021;-86
2021/09/25 06:34:07;;;;;;;13.57;6.93;;;15.90;99.90;;;;;;5074850;28;20088;-86
2021/09/25 06:36:34;;;;;;;13.07;6.80;;;15.90;99.90;;;;;;5056867;28;20400;-86
2021/09/25 06:39:01;;;;;;;15.13;7.70;;;15.90;99.90;;;;;;5074310;28;20032;-85
2021/09/25 06:41:27;;;;;;;14.73;7.03;;;15.90;99.90;;;;;;5074649;28;20100;-86
2021/09/25 06:43:52;;;;;;;12.93;7.25;;;15.90;99.90;;;;;;5074945;28;20103;-85
2021/09/25 06:46:18;;;;;;;12.98;7.05;;;15.90;99.90;;;;;;5056961;28;20028;-85
2021/09/25 06:48:47;;;;;;;12.43;7.00;;;15.90;99.90;;;;;;5056797;28;20031;-87
2021/09/25 06:51:12;;;;;;;13.80;7.90;;;15.90;99.90;;;;;;5056497;28;20024;-85
2021/09/25 06:53:38;;;;;;;13.63;7.10;;;16.00;99.90;;;;;;5074525;28;20031;-86
2021/09/25 06:56:04;;;;;;;12.05;6.85;;;16.00;99.90;;;;;;5074640;28;20051;-86
2021/09/25 06:58:30;;;;;;;10.45;6.20;;;16.00;99.90;;;;;;5074588;28;20031;-86
2021/09/25 07:00:56;;;;;;;9.35;5.97;;;16.00;99.90;;;;;;5055979;28;20079;-86
2021/09/25 07:03:22;;;;;;;12.60;6.45;;;16.00;99.90;;;;;;5056547;28;20033;-86
2021/09/25 07:05:47;;;;;;;12.27;6.57;;;16.00;99.90;;;;;;5056450;28;20063;-86
2021/09/25 07:08:13;;;;;;;9.82;6.45;;;16.00;99.90;;;;;;5074557;28;20470;-86
2021/09/25 07:10:38;;;;;;;13.35;7.43;;;16.00;99.90;;;;;;5055831;28;20021;-86
2021/09/25 07:13:04;;;;;;;11.50;6.88;;;16.00;99.90;;;;;;5073322;28;20024;-85
2021/09/25 07:15:31;;;;;;;13.07;6.68;;;16.00;99.90;;;;;;5056194;28;20230;-86
2021/09/25 07:17:57;;;;;;;11.40;6.88;;;16.10;99.90;;;;;;5056087;28;20032;-85
2021/09/25 07:20:23;;;;;;;10.98;5.88;;;16.00;99.90;;;;;;5073687;28;20104;-86
2021/09/25 07:22:51;;;;;;;10.07;6.10;;;16.10;99.90;;;;;;5074082;28;20020;-86
2021/09/25 07:25:21;;;;;;;9.88;6.20;;;16.10;99.90;;;;;;5055933;28;20094;-86
2021/09/25 07:27:49;;;;;;;10.70;5.82;;;16.10;99.90;;;;;;5056183;28;20033;-85
2021/09/25 07:30:14;;;;;;;10.32;6.05;;;16.10;99.90;;;;;;5073400;28;20032;-86
2021/09/25 07:32:40;;;;;;;9.43;5.85;;;16.10;99.90;;;;;;5055990;28;20443;-85
2021/09/25 07:35:07;;;;;;;10.50;6.03;;;16.20;99.90;;;;;;5073920;28;20040;-86
2021/09/25 07:37:34;;;;;;;10.65;6.47;;;16.20;99.90;;;;;;5055835;28;20032;-86
2021/09/25 07:40:01;;;;;;;9.52;6.18;;;16.20;99.90;;;;;;5055167;28;20035;-85
2021/09/25 07:42:26;;;;;;;13.80;6.65;;;16.20;99.90;;;;;;5055691;28;20029;-85
2021/09/25 07:44:52;;;;;;;10.13;6.38;;;16.20;99.90;;;;;;5055887;28;20036;-86
2021/09/25 07:47:17;;;;;;;11.10;7.13;;;16.20;99.90;;;;;;5055717;28;20056;-86
2021/09/25 07:49:43;;;;;;;12.00;7.15;;;16.30;99.90;;;;;;5055128;28;20058;-85
2021/09/25 07:52:09;;;;;;;12.25;6.50;;;16.30;99.90;;;;;;5055528;28;20033;-85
2021/09/25 07:54:35;;;;;;;11.00;6.82;;;16.30;99.90;;;;;;5055582;28;20025;-85
2021/09/25 07:57:01;;;;;;;9.93;5.97;;;16.30;99.90;;;;;;5055387;28;20489;-86
2021/09/25 07:59:27;;;;;;;12.10;5.53;;;16.40;99.90;;;;;;5054885;28;20031;-86
2021/09/25 08:01:52;;;;;;;11.90;6.30;;;16.40;99.90;;;;;;5073253;28;20028;-86
2021/09/25 08:04:18;;;;;;;10.82;6.78;;;16.40;99.90;;;;;;5073129;28;20031;-85
2021/09/25 08:06:43;;;;;;;11.43;6.95;;;16.40;99.90;;;;;;5073181;28;20024;-86
2021/09/25 08:09:09;;;;;;;10.63;5.93;;;16.40;99.90;;;;;;5054982;28;20074;-86
2021/09/25 08:11:35;;;;;;;11.00;6.38;;;16.40;99.90;;;;;;5055472;28;20025;-86
2021/09/25 08:14:01;;;;;;;12.05;6.13;;;16.50;99.90;;;;;;5055109;28;20544;-86
2021/09/25 08:16:27;;;;;;;10.63;6.50;;;16.50;99.90;;;;;;5055043;28;20051;-86
2021/09/25 08:18:53;;;;;;;10.07;6.57;;;16.50;99.90;;;;;;5054608;28;20063;-86
2021/09/25 08:21:20;;;;;;;14.07;6.80;;;16.50;99.90;;;;;;5072771;28;20013;-86
2021/09/25 08:23:46;;;;;;;11.10;5.47;;;16.60;99.90;;;;;;5072384;28;20362;-86
2021/09/25 08:26:12;;;;;;;10.07;6.40;;;16.60;99.90;;;;;;5054801;28;20029;-86
2021/09/25 08:28:37;;;;;;;13.32;6.28;;;16.60;99.90;;;;;;5072777;28;20035;-86
2021/09/25 08:31:03;;;;;;;12.07;6.47;;;16.60;99.90;;;;;;5071903;28;20044;-86
2021/09/25 08:33:29;;;;;;;10.25;6.60;;;16.60;99.90;;;;;;5072541;28;20111;-85
2021/09/25 08:35:55;;;;;;;11.38;5.60;;;16.70;99.90;;;;;;5073166;28;20060;-86
2021/09/25 08:38:21;;;;;;;9.90;6.10;;;16.70;99.90;;;;;;5054579;28;20444;-86
2021/09/25 08:40:47;;;;;;;11.35;5.80;;;16.70;99.90;;;;;;5072028;28;20052;-84
2021/09/25 08:43:13;;;;;;;9.73;5.95;;;16.80;99.90;;;;;;5072791;28;20393;-85
2021/09/25 08:45:39;;;;;;;12.85;5.75;;;16.80;99.90;;;;;;5055386;28;20043;-85
2021/09/25 08:48:05;;;;;;;9.23;6.38;;;16.80;99.90;;;;;;5072819;28;20039;-85
2021/09/25 08:50:31;;;;;;;8.30;5.47;;;16.80;99.90;;;;;;5072313;28;20029;-85
2021/09/25 08:52:56;;;;;;;8.55;5.32;;;16.90;99.90;;;;;;5055139;28;20028;-85
2021/09/25 08:55:22;;;;;;;9.38;5.82;;;16.90;99.90;;;;;;5054774;28;20032;-85
2021/09/25 08:57:48;;;;;;;11.75;6.18;;;16.90;99.90;;;;;;5054904;28;20035;-85
2021/09/25 09:00:32;;;;;;;9.00;5.28;;;16.90;99.90;;;;;;5054805;28;20024;-85
2021/09/25 09:03:15;;;;;;;11.80;7.03;;;17.00;99.90;;;;;;5054873;28;20115;-86
2021/09/25 09:05:41;;;;;;;13.13;6.70;;;17.00;99.90;;;;;;5055106;28;20501;-85
2021/09/25 09:08:07;;;;;;;10.93;6.72;;;17.00;99.90;;;;;;5055134;28;20061;-85
2021/09/25 09:10:34;;;;;;;10.77;5.95;;;17.10;99.90;;;;;;5054345;28;20481;-85
2021/09/25 09:13:00;;;;;;;8.43;6.03;;;17.10;99.90;;;;;;5072702;28;20032;-84
2021/09/25 09:15:33;;;;;;;8.15;5.05;;;17.20;99.90;;;;;;5055101;28;20035;-85
2021/09/25 09:18:01;;;;;;;8.23;4.75;;;17.20;99.90;;;;;;5054781;28;20120;-85
2021/09/25 09:20:37;;;;;;;8.68;5.38;;;17.20;99.90;;;;;;5054206;28;20039;-84
2021/09/25 09:23:13;;;;;;;10.30;5.70;;;17.30;99.90;;;;;;5054865;28;20493;-85
2021/09/25 09:25:40;;;;;;;9.43;5.32;;;17.30;99.90;;;;;;5072728;28;20031;-85
2021/09/25 09:28:20;;;;;;;7.32;4.90;;;17.30;99.90;;;;;;5055358;28;20028;-85
2021/09/25 09:30:47;;;;;;;9.27;5.05;;;17.40;99.90;;;;;;5053868;28;20034;-85
2021/09/25 09:33:32;;;;;;;11.02;5.85;;;17.40;99.90;;;;;;5054727;28;20560;-85
2021/09/25 09:36:13;;;;;;;12.43;6.28;;;17.40;99.90;;;;;;5060301;28;20028;-84
2021/09/25 09:38:50;;;;;;;9.90;6.00;;;17.50;99.90;;;;;;5062225;28;20481;-85
2021/09/25 09:41:26;;;;;;;11.27;6.75;;;17.50;99.90;;;;;;5080091;28;20028;-85
2021/09/25 09:43:53;;;;;;;10.98;7.20;;;17.50;99.90;;;;;;5079121;28;20032;-85
2021/09/25 09:46:26;;;;;;;8.43;5.22;;;17.60;99.90;;;;;;5061148;28;20056;-84
2021/09/25 09:48:54;;;;;;;9.88;5.70;;;17.60;99.90;;;;;;5060924;28;20028;-86
2021/09/25 09:51:34;;;;;;;11.17;6.17;;;17.60;99.90;;;;;;5078606;28;20416;-86
2021/09/25 09:54:00;;;;;;;10.00;5.60;;;17.60;99.90;;;;;;5078737;28;20108;-86
2021/09/25 09:56:25;;;;;;;9.95;5.40;;;17.60;99.90;;;;;;5060843;28;20043;-86
2021/09/25 09:59:04;;;;;;;8.65;4.97;;;17.60;99.90;;;;;;5060455;28;20029;-85
2021/09/25 10:01:30;;;;;;;10.32;4.90;;;17.60;99.90;;;;;;5060824;28;20454;-85
2021/09/25 10:03:58;;;;;;;7.88;4.93;;;17.70;99.90;;;;;;5061190;28;20111;-85
2021/09/25 10:06:24;;;;;;;8.15;5.07;;;17.70;99.90;;;;;;5078859;28;20028;-85
2021/09/25 10:08:49;;;;;;;10.25;5.45;;;17.70;99.90;;;;;;5078406;28;20028;-85
2021/09/25 10:11:16;;;;;;;9.57;5.57;;;17.70;99.90;;;;;;5060680;28;20024;-85
2021/09/25 10:13:41;;;;;;;9.65;4.78;;;17.70;99.90;;;;;;5060687;28;20028;-84
2021/09/25 10:16:09;;;;;;;8.05;5.22;;;17.80;99.90;;;;;;5078326;28;20028;-84
2021/09/25 10:18:35;;;;;;;6.82;4.70;;;17.80;99.90;;;;;;5060703;28;20474;-85
2021/09/25 10:21:04;;;;;;;8.32;5.35;;;17.80;99.90;;;;;;5060296;28;20128;-85
2021/09/25 10:23:32;;;;;;;8.52;5.40;;;17.80;99.90;;;;;;5060633;28;20392;-84
2021/09/25 10:25:58;;;;;;;8.57;4.25;;;17.90;99.90;;;;;;5060604;28;20029;-84
2021/09/25 10:28:28;;;;;;;6.80;4.55;;;17.90;99.90;;;;;;5078442;28;20016;-85
2021/09/25 10:30:54;;;;;;;9.75;5.53;;;17.90;99.90;;;;;;5060077;28;20025;-85
2021/09/25 10:33:22;;;;;;;9.48;5.22;;;18.00;99.90;;;;;;5060387;28;20024;-85
2021/09/25 10:35:49;;;;;;;9.23;5.18;;;18.00;99.90;;;;;;5060597;28;20051;-85
2021/09/25 10:38:34;;;;;;;7.68;4.80;;;18.00;99.90;;;;;;5060707;28;20039;-85
2021/09/25 10:41:19;;;;;;;9.52;4.88;;;18.00;99.90;;;;;;5077810;28;20029;-85
2021/09/25 10:43:47;;;;;;;6.75;4.53;;;18.10;99.90;;;;;;5079693;28;20382;-85
2021/09/25 10:46:15;;;;;;;10.07;6.05;;;18.10;99.90;;;;;;5060900;28;20115;-85
2021/09/25 10:48:50;;;;;;;7.70;4.65;;;18.10;99.90;;;;;;5058867;28;20032;-86
2021/09/25 10:51:20;;;;;;;9.02;5.20;;;18.10;99.90;;;;;;5058801;28;20082;-85
2021/09/25 10:53:48;;;;;;;8.93;5.05;;;18.20;99.90;;;;;;5076702;28;20389;-85
2021/09/25 10:56:27;;;;;;;9.85;6.28;;;18.20;99.90;;;;;;5076866;28;20081;-85
2021/09/25 10:59:06;;;;;;;9.73;5.85;;;18.20;99.90;;;;;;5076956;28;20103;-86
2021/09/25 11:01:37;;;;;;;8.10;5.32;;;18.30;99.90;;;;;;5058708;28;20048;-85
2021/09/25 11:04:10;;;;;;;8.90;5.18;;;18.30;99.90;;;;;;5076948;28;20038;-85
2021/09/25 11:06:41;;;;;;;7.50;4.70;;;18.30;99.90;;;;;;5075538;28;20040;-85
2021/09/25 11:09:17;;;;;;;8.77;4.97;;;18.30;99.90;;;;;;5076323;28;20872;-85
2021/09/25 11:11:46;;;;;;;10.45;4.93;;;18.30;99.90;;;;;;5058920;28;20061;-85
2021/09/25 11:14:38;;;;;;;9.32;5.20;;;18.40;99.90;;;;;;5077189;28;20024;-85
2021/09/25 11:17:25;;;;;;;7.53;4.75;;;18.40;99.90;;;;;;5058931;28;20079;-85
2021/09/25 11:20:08;;;;;;;8.43;5.35;;;18.40;99.90;;;;;;5058278;28;20024;-85
2021/09/25 11:22:35;;;;;;;8.48;4.82;;;18.40;99.90;;;;;;5058986;28;20023;-85
2021/09/25 11:25:15;;;;;;;7.32;4.88;;;18.50;99.90;;;;;;5058979;28;20025;-85
2021/09/25 11:27:44;;;;;;;7.53;4.38;;;18.50;99.90;;;;;;5058466;28;20567;-85
2021/09/25 11:30:29;;;;;;;9.38;5.20;;;18.50;99.90;;;;;;5058224;28;20028;-86
2021/09/25 11:33:02;;;;;;;7.50;5.03;;;18.50;99.90;;;;;;5059074;28;20510;-85
2021/09/25 11:35:34;;;;;;;7.65;4.97;;;18.50;99.90;;;;;;5077492;28;20098;-85
2021/09/25 11:38:10;;;;;;;7.28;4.65;;;18.50;99.90;;;;;;5058604;28;20519;-85
2021/09/25 11:40:39;;;;;;;7.55;4.68;;;18.50;99.90;;;;;;5058981;28;20036;-86
2021/09/25 11:43:11;;;;;;;8.40;5.05;;;18.60;99.90;;;;;;5057116;28;20028;-85
2021/09/25 11:45:40;;;;;;;9.60;5.13;;;18.60;99.90;;;;;;5056047;28;20126;-85
2021/09/25 11:48:07;;;;;;;;;;;18.60;99.90;;;;;;5056713;28;20056;-85
2021/09/25 11:50:35;;;;;;;7.80;4.72;;;18.60;99.90;;;;;;5056041;28;20304;-85
2021/09/25 11:53:09;;;;;;;7.38;4.53;;;18.60;99.90;;;;;;5056175;28;20025;-85
2021/09/25 11:55:36;;;;;;;10.40;4.90;;;18.60;99.90;;;;;;5056300;28;20025;-85
2021/09/25 11:58:05;;;;;;;8.75;4.80;;;18.60;99.90;;;;;;5056267;28;20078;-85
2021/09/25 12:00:35;;;;;;;7.00;4.70;;;18.60;99.90;;;;;;5073374;28;20095;-85
2021/09/25 12:03:02;;;;;;;10.45;5.55;;;18.60;99.90;;;;;;5056013;28;20031;-85
2021/09/25 12:05:29;;;;;;;7.68;4.95;;;18.60;99.90;;;;;;5055956;28;20035;-85
2021/09/25 12:07:56;;;;;;;9.57;6.78;;;18.60;99.90;;;;;;5056141;28;20029;-86
2021/09/25 12:10:28;;;;;;;10.57;6.22;;;18.60;99.90;;;;;;5073280;28;20101;-85
2021/09/25 12:12:56;;;;;;;8.82;5.35;;;18.60;99.90;;;;;;5056059;28;20115;-85
2021/09/25 12:15:34;;;;;;;8.45;5.43;;;18.60;99.90;;;;;;5055963;28;20499;-85
2021/09/25 12:18:12;;;;;;;7.82;5.15;;;18.70;99.90;;;;;;5073824;28;20056;-84
2021/09/25 12:20:44;;;;;;;10.80;5.07;;;18.60;99.90;;;;;;5055148;28;20104;-85
2021/09/25 12:23:10;;;;;;;8.45;4.90;;;18.60;99.90;;;;;;5055560;28;20027;-85
2021/09/25 12:25:40;;;;;;;9.35;4.60;;;18.60;99.90;;;;;;5073524;28;20024;-85
2021/09/25 12:28:27;;;;;;;8.00;4.55;;;18.60;99.90;;;;;;5055495;28;20024;-85
2021/09/25 12:30:59;;;;;;;7.88;4.93;;;18.60;99.90;;;;;;5073353;28;20067;-85
2021/09/25 12:33:25;;;;;;;8.18;4.90;;;18.70;99.90;;;;;;5056183;28;20021;-84
2021/09/25 12:35:57;;;;;;;8.27;5.05;;;18.70;99.90;;;;;;5073179;28;20059;-85
2021/09/25 12:38:28;;;;;;;9.68;5.43;;;18.70;99.90;;;;;;5055161;28;20096;-85
2021/09/25 12:40:58;;;;;;;7.55;4.78;;;18.70;99.90;;;;;;5055722;28;20027;-85
2021/09/25 12:43:24;;;;;;;10.70;4.78;;;18.80;99.90;;;;;;5055866;28;20027;-85
2021/09/25 12:46:08;;;;;;;7.22;4.55;;;18.80;99.90;;;;;;5055591;28;20020;-85